Current Weather

King Khaled Intl

King Khaled Intl, Saudi Arabia (OERK)

Report from: Thursday, February 22, 2024 4:00 PM +03
Current time: Thursday, February 22, 2024 4:17 PM +03

Nearby weather – Weather history – Daily summaries
Weather forecast

Temperature25.0°C (77.0°F)
Dew point1.0°C (33.8°F)
Winds 6 kts (3.1 m/s, 6.9 mph) Southeast (140°)
Clouds Sky clear
Altimeter30.09 in.Hg (1019 mB)
Relative humidity21 %
Density altitude1,069 ft. (326 m)
Remarks Ceiling and visibility OK
No significant changes expected in the next two hours
Flight conditions Visual Meteorological Conditions
Raw dataOERK 221300Z 14006KT CAVOK 25/01 Q1019 NOSIG
An error has occurred. This application may no longer respond until reloaded. Reload 🗙